createdAt,value
2024-03-15T00:01:59.906Z,13.00
2024-03-15T00:05:41.755Z,13.00
2024-03-15T00:09:24.054Z,13.00
2024-03-15T00:13:06.082Z,12.90
2024-03-15T00:16:47.922Z,12.90
2024-03-15T00:20:29.708Z,12.90
2024-03-15T00:24:11.557Z,12.90
2024-03-15T00:27:53.685Z,12.90
2024-03-15T00:31:35.662Z,12.80
2024-03-15T00:35:17.404Z,12.90
2024-03-15T00:38:59.357Z,12.80
2024-03-15T00:42:42.089Z,12.90
2024-03-15T00:46:24.205Z,12.80
2024-03-15T00:50:07.327Z,12.80
2024-03-15T00:53:49.143Z,12.80
2024-03-15T00:57:30.985Z,12.80
2024-03-15T01:01:13.334Z,12.80
2024-03-15T01:04:55.926Z,12.80
2024-03-15T01:08:37.735Z,12.80
2024-03-15T01:12:19.650Z,12.80
2024-03-15T01:16:04.485Z,12.80
2024-03-15T01:19:46.768Z,12.70
2024-03-15T01:23:28.650Z,12.70
2024-03-15T01:27:10.531Z,12.60
2024-03-15T01:30:52.596Z,12.40
2024-03-15T01:34:34.495Z,12.40
2024-03-15T01:38:16.409Z,12.30
2024-03-15T01:41:58.180Z,12.20
2024-03-15T01:45:41.605Z,12.10
2024-03-15T01:49:23.401Z,12.00
2024-03-15T01:53:05.956Z,11.90
2024-03-15T01:56:47.886Z,12.00
2024-03-15T02:00:29.787Z,12.00
2024-03-15T02:04:11.594Z,12.00
2024-03-15T02:07:54.052Z,12.00
2024-03-15T02:11:35.928Z,12.10
2024-03-15T02:15:18.098Z,12.10
2024-03-15T02:19:00.990Z,12.10
2024-03-15T02:22:43.373Z,12.10
2024-03-15T02:26:25.191Z,12.20
2024-03-15T02:30:07.706Z,12.20
2024-03-15T02:33:49.597Z,12.20
2024-03-15T02:37:32.963Z,12.20
2024-03-15T02:41:16.390Z,12.20
2024-03-15T02:44:58.213Z,12.10
2024-03-15T02:48:40.410Z,12.20
2024-03-15T02:52:23.009Z,12.20
2024-03-15T02:56:05.187Z,12.20
2024-03-15T02:59:47.104Z,12.20
2024-03-15T03:03:29.089Z,12.30
2024-03-15T03:07:10.999Z,12.30
2024-03-15T03:10:52.765Z,12.30
2024-03-15T03:14:35.059Z,12.30
2024-03-15T03:18:16.893Z,12.30
2024-03-15T03:21:58.789Z,12.40
2024-03-15T03:25:40.672Z,12.40
2024-03-15T03:29:24.037Z,12.30
2024-03-15T03:33:05.999Z,12.30
2024-03-15T03:36:48.026Z,12.30
2024-03-15T03:40:30.058Z,12.30
2024-03-15T03:44:11.886Z,12.30
2024-03-15T03:47:55.197Z,12.30
2024-03-15T03:51:37.138Z,12.30
2024-03-15T03:55:19.105Z,12.40
2024-03-15T03:59:00.962Z,12.30
2024-03-15T04:02:47.479Z,12.30
2024-03-15T04:06:29.781Z,12.30
2024-03-15T04:10:11.679Z,12.30
2024-03-15T04:13:53.749Z,12.30
2024-03-15T04:17:36.294Z,12.20
2024-03-15T04:21:18.214Z,12.30
2024-03-15T04:25:00.412Z,12.30
2024-03-15T04:28:43.115Z,12.30
2024-03-15T04:32:24.948Z,12.30
2024-03-15T04:36:07.369Z,12.20
2024-03-15T04:39:49.459Z,12.20
2024-03-15T04:43:33.044Z,12.20
2024-03-15T04:47:14.830Z,12.20
2024-03-15T04:50:56.672Z,12.20
2024-03-15T04:54:39.444Z,12.20
2024-03-15T04:58:22.696Z,12.10
2024-03-15T05:02:04.465Z,12.00
2024-03-15T05:05:46.250Z,12.00
2024-03-15T05:09:28.557Z,11.90
2024-03-15T05:13:10.462Z,11.90
2024-03-15T05:16:55.624Z,11.80
2024-03-15T05:20:37.489Z,11.70
2024-03-15T05:24:19.328Z,11.70
2024-03-15T05:28:01.631Z,11.70
2024-03-15T05:31:43.437Z,11.70
2024-03-15T05:35:25.235Z,11.70
2024-03-15T05:39:11.799Z,11.70
2024-03-15T05:42:54.934Z,11.70
2024-03-15T05:46:37.815Z,11.80
2024-03-15T05:50:19.745Z,11.80
2024-03-15T05:54:01.602Z,11.80
2024-03-15T05:57:43.552Z,11.80
2024-03-15T06:01:25.461Z,11.80
2024-03-15T06:05:08.432Z,11.80
2024-03-15T06:08:50.180Z,11.80
2024-03-15T06:12:32.117Z,11.80
2024-03-15T06:16:17.382Z,11.80
2024-03-15T06:19:59.633Z,11.80
2024-03-15T06:23:41.433Z,11.80
2024-03-15T06:27:23.378Z,11.80
2024-03-15T06:31:05.779Z,11.80
2024-03-15T06:34:50.512Z,11.80
2024-03-15T06:38:42.286Z,11.80
2024-03-15T06:42:25.946Z,11.70
2024-03-15T06:46:20.888Z,11.80
2024-03-15T06:50:15.125Z,11.80
2024-03-15T06:53:57.771Z,11.80
2024-03-15T06:57:40.418Z,11.90
2024-03-15T07:01:22.288Z,11.90
2024-03-15T07:05:05.192Z,11.90
2024-03-15T07:08:50.904Z,11.90
2024-03-15T07:12:33.164Z,11.90
2024-03-15T07:16:14.934Z,12.00
2024-03-15T07:19:57.649Z,12.00
2024-03-15T07:23:40.324Z,12.00
2024-03-15T07:27:22.897Z,12.10
2024-03-15T07:31:06.210Z,12.10
2024-03-15T07:34:48.490Z,12.20
2024-03-15T07:38:30.268Z,12.30
2024-03-15T07:42:12.265Z,12.40
2024-03-15T07:45:54.242Z,12.50
2024-03-15T07:49:36.092Z,12.70
2024-03-15T07:53:18.503Z,12.70
2024-03-15T07:57:00.354Z,12.70
2024-03-15T08:00:44.489Z,12.70
2024-03-15T08:04:27.466Z,12.70
2024-03-15T08:08:09.256Z,12.80
2024-03-15T08:11:51.879Z,12.80
2024-03-15T08:15:34.170Z,13.00
2024-03-15T08:19:16.443Z,13.10
2024-03-15T08:22:58.578Z,13.30
2024-03-15T08:26:40.872Z,13.50
2024-03-15T08:30:24.523Z,13.70
2024-03-15T08:34:09.667Z,13.90
2024-03-15T08:37:52.163Z,13.90
2024-03-15T08:41:33.938Z,14.00
2024-03-15T08:45:16.294Z,14.00
2024-03-15T08:48:58.693Z,14.00
2024-03-15T08:52:43.440Z,14.10
2024-03-15T08:56:25.799Z,14.30
2024-03-15T09:00:14.159Z,14.50
2024-03-15T09:03:56.138Z,14.90
2024-03-15T09:07:38.707Z,15.00
2024-03-15T09:11:20.544Z,15.40
2024-03-15T09:15:02.454Z,15.70
2024-03-15T09:18:44.814Z,15.80
2024-03-15T09:22:27.427Z,15.80
2024-03-15T09:26:09.257Z,15.70
2024-03-15T09:29:51.831Z,15.70
2024-03-15T09:33:36.739Z,15.80
2024-03-15T09:37:21.278Z,16.10
2024-03-15T09:41:07.466Z,16.30
2024-03-15T09:44:50.112Z,16.30
2024-03-15T09:48:36.045Z,16.30
2024-03-15T09:52:18.735Z,16.20
2024-03-15T09:56:00.560Z,16.10
2024-03-15T09:59:42.549Z,16.00
2024-03-15T10:03:24.613Z,16.00
2024-03-15T10:07:09.781Z,16.20
2024-03-15T10:10:51.640Z,16.10
2024-03-15T10:14:33.581Z,16.10
2024-03-15T10:18:15.887Z,16.20
2024-03-15T10:22:01.262Z,16.50
2024-03-15T10:25:43.248Z,16.80
2024-03-15T10:29:25.305Z,17.30
2024-03-15T10:33:09.479Z,17.50
2024-03-15T10:36:51.669Z,17.40
2024-03-15T10:40:35.601Z,17.20
2024-03-15T10:44:20.299Z,17.20
2024-03-15T10:48:07.372Z,17.40
2024-03-15T10:51:52.104Z,17.60
2024-03-15T10:55:33.998Z,17.60
2024-03-15T10:59:16.529Z,17.50
2024-03-15T11:03:11.875Z,17.30
2024-03-15T11:06:53.943Z,17.30
2024-03-15T11:10:37.435Z,17.20
2024-03-15T11:14:23.715Z,17.40
2024-03-15T11:18:08.036Z,17.30
2024-03-15T11:21:50.193Z,17.20
2024-03-15T11:25:33.662Z,17.20
2024-03-15T11:29:18.573Z,17.60
2024-03-15T11:33:01.415Z,17.60
2024-03-15T11:36:44.274Z,17.50
2024-03-15T11:40:27.298Z,17.30
2024-03-15T11:44:10.268Z,17.00
2024-03-15T11:47:53.268Z,16.70
2024-03-15T11:51:35.225Z,16.40
2024-03-15T11:55:19.162Z,16.10
2024-03-15T11:59:03.589Z,15.80
2024-03-15T12:02:45.545Z,15.60
2024-03-15T12:06:27.361Z,15.50
2024-03-15T12:10:14.845Z,15.40
2024-03-15T12:14:00.560Z,15.90
2024-03-15T12:17:42.513Z,16.90
2024-03-15T12:21:24.363Z,17.90
2024-03-15T12:25:06.641Z,19.20
2024-03-15T12:28:52.532Z,20.70
2024-03-15T12:32:34.425Z,22.00
2024-03-15T12:36:17.020Z,22.20
2024-03-15T12:40:02.289Z,21.70
2024-03-15T12:43:44.126Z,21.20
2024-03-15T12:47:25.939Z,21.00
2024-03-15T12:51:09.553Z,20.90
2024-03-15T12:54:51.325Z,21.10
2024-03-15T12:58:33.147Z,20.80
2024-03-15T13:02:15.265Z,20.20
2024-03-15T13:05:57.047Z,19.80
2024-03-15T13:09:38.913Z,19.40
2024-03-15T13:13:21.370Z,19.20
2024-03-15T13:17:04.566Z,18.90
2024-03-15T13:20:47.398Z,18.50
2024-03-15T13:24:29.255Z,18.30
2024-03-15T13:28:11.087Z,18.00
2024-03-15T13:31:52.899Z,17.80
2024-03-15T13:35:34.826Z,18.00
2024-03-15T13:39:22.705Z,18.40
2024-03-15T13:43:04.746Z,18.40
2024-03-15T13:46:46.790Z,19.10
2024-03-15T13:50:29.922Z,20.40
2024-03-15T13:54:15.000Z,21.30
2024-03-15T13:57:56.851Z,22.40
2024-03-15T14:01:39.982Z,22.40
2024-03-15T14:05:23.592Z,21.80
2024-03-15T14:09:06.220Z,21.00
2024-03-15T14:12:49.489Z,20.80
2024-03-15T14:16:32.397Z,21.20
2024-03-15T14:20:14.623Z,21.30
2024-03-15T14:23:56.385Z,20.90
2024-03-15T14:27:38.651Z,20.60
2024-03-15T14:31:22.665Z,20.80
2024-03-15T14:35:04.820Z,21.80
2024-03-15T14:38:47.512Z,22.90
2024-03-15T14:42:35.731Z,23.80
2024-03-15T14:46:19.224Z,23.70
2024-03-15T14:50:03.854Z,22.90
2024-03-15T14:53:46.717Z,21.90
2024-03-15T14:57:30.362Z,21.10
2024-03-15T15:01:12.492Z,20.50
2024-03-15T15:04:54.651Z,20.50
2024-03-15T15:08:36.610Z,20.40
2024-03-15T15:12:20.191Z,20.10
2024-03-15T15:16:02.382Z,19.60
2024-03-15T15:19:44.494Z,19.10
2024-03-15T15:23:26.263Z,18.80
2024-03-15T15:27:08.094Z,18.70
2024-03-15T15:30:50.008Z,18.40
2024-03-15T15:34:32.014Z,18.30
2024-03-15T15:38:13.859Z,18.40
2024-03-15T15:41:55.751Z,18.30
2024-03-15T15:45:41.588Z,18.30
2024-03-15T15:49:28.084Z,18.20
2024-03-15T15:53:10.200Z,18.10
2024-03-15T15:56:52.237Z,17.90
2024-03-15T16:00:34.194Z,17.80
2024-03-15T16:04:16.085Z,17.60
2024-03-15T16:07:59.387Z,17.50
2024-03-15T16:11:42.045Z,17.30
2024-03-15T16:15:23.927Z,17.30
2024-03-15T16:19:07.965Z,17.20
2024-03-15T16:22:49.860Z,17.10
2024-03-15T16:26:31.688Z,16.90
2024-03-15T16:30:13.688Z,16.80
2024-03-15T16:33:55.578Z,16.60
2024-03-15T16:37:37.620Z,16.50
2024-03-15T16:41:19.462Z,16.40
2024-03-15T16:45:02.969Z,16.40
2024-03-15T16:48:45.067Z,16.30
2024-03-15T16:52:27.954Z,16.10
2024-03-15T16:56:09.777Z,16.10
2024-03-15T16:59:52.947Z,16.00
2024-03-15T17:03:34.885Z,15.90
2024-03-15T17:07:16.938Z,15.80
2024-03-15T17:11:01.229Z,15.60
2024-03-15T17:14:43.088Z,15.50
2024-03-15T17:18:24.954Z,15.60
2024-03-15T17:22:06.916Z,15.60
2024-03-15T17:25:54.892Z,15.70
2024-03-15T17:29:36.779Z,15.70
2024-03-15T17:33:18.675Z,15.70
2024-03-15T17:37:03.735Z,15.70
2024-03-15T17:40:50.202Z,15.60
2024-03-15T17:44:32.065Z,15.50
2024-03-15T17:48:14.010Z,15.30
2024-03-15T17:51:56.147Z,15.10
2024-03-15T17:55:37.978Z,15.00
2024-03-15T17:59:19.820Z,14.80
2024-03-15T18:03:04.885Z,14.60
2024-03-15T18:06:47.107Z,14.50
2024-03-15T18:10:30.168Z,14.40
2024-03-15T18:14:12.019Z,14.30
2024-03-15T18:17:53.950Z,14.20
2024-03-15T18:21:38.076Z,14.10
2024-03-15T18:25:19.906Z,14.00
2024-03-15T18:29:01.730Z,13.90
2024-03-15T18:32:43.627Z,14.00
2024-03-15T18:36:26.508Z,13.90
2024-03-15T18:40:11.346Z,13.90
2024-03-15T18:43:53.349Z,14.00
2024-03-15T18:51:17.901Z,13.90
2024-03-15T18:54:59.819Z,13.90
2024-03-15T18:58:41.655Z,13.80
2024-03-15T19:02:29.350Z,13.80
2024-03-15T19:06:11.750Z,13.80
2024-03-15T19:10:00.367Z,13.80
2024-03-15T19:13:42.498Z,13.70
2024-03-15T19:17:27.746Z,13.60
2024-03-15T19:21:09.632Z,13.60
2024-03-15T19:24:51.545Z,13.50
2024-03-15T19:28:37.031Z,13.60
2024-03-15T19:32:18.832Z,13.50
2024-03-15T19:36:00.658Z,13.60
2024-03-15T19:39:42.853Z,13.60
2024-03-15T19:43:25.548Z,13.60
2024-03-15T19:47:08.494Z,13.60
2024-03-15T19:50:50.448Z,13.60
2024-03-15T19:54:32.304Z,13.40
2024-03-15T19:58:14.628Z,13.50
2024-03-15T20:01:56.613Z,13.40
2024-03-15T20:05:38.482Z,13.40
2024-03-15T20:09:20.310Z,13.30
2024-03-15T20:13:02.435Z,13.30
2024-03-15T20:16:50.790Z,13.30
2024-03-15T20:20:32.636Z,13.30
2024-03-15T20:24:16.162Z,13.30
2024-03-15T20:27:58.046Z,13.20
2024-03-15T20:31:39.883Z,13.20
2024-03-15T20:35:23.378Z,13.20
2024-03-15T20:39:05.180Z,13.10
2024-03-15T20:42:48.385Z,13.00
2024-03-15T20:46:32.277Z,12.90
2024-03-15T20:50:25.474Z,12.70
2024-03-15T20:58:07.301Z,12.50
2024-03-15T21:01:58.704Z,12.50
2024-03-15T21:05:43.780Z,12.30
2024-03-15T21:09:25.688Z,12.20
2024-03-15T21:13:07.653Z,12.10
2024-03-15T21:16:49.500Z,12.00
2024-03-15T21:20:33.952Z,11.90
2024-03-15T21:24:16.389Z,11.80
2024-03-15T21:27:58.944Z,11.80
2024-03-15T21:31:40.782Z,11.60
2024-03-15T21:35:23.931Z,11.50
2024-03-15T21:39:12.193Z,11.30
2024-03-15T21:42:55.553Z,11.20
2024-03-15T21:46:37.434Z,11.00
2024-03-15T21:50:19.235Z,11.00
2024-03-15T21:54:01.086Z,10.90
2024-03-15T21:57:42.977Z,10.80
2024-03-15T22:01:27.513Z,10.70
2024-03-15T22:05:12.170Z,10.60
2024-03-15T22:08:53.965Z,10.50
2024-03-15T22:12:35.755Z,10.40
2024-03-15T22:16:19.869Z,10.30
2024-03-15T22:20:02.070Z,10.20
2024-03-15T22:23:43.929Z,10.20
2024-03-15T22:27:26.539Z,10.10
2024-03-15T22:31:08.967Z,10.00
2024-03-15T22:34:52.670Z,10.00
2024-03-15T22:38:34.456Z,9.90
2024-03-15T22:42:16.273Z,9.80
2024-03-15T22:45:58.101Z,9.70
2024-03-15T22:49:39.954Z,9.70
2024-03-15T22:53:21.780Z,9.60
2024-03-15T22:57:03.654Z,9.50
2024-03-15T23:00:48.591Z,9.40
2024-03-15T23:04:30.478Z,9.30
2024-03-15T23:08:13.586Z,9.30
2024-03-15T23:11:55.428Z,9.20
2024-03-15T23:15:40.623Z,9.20
2024-03-15T23:19:22.528Z,9.10
2024-03-15T23:23:05.523Z,9.10
2024-03-15T23:26:47.429Z,9.00
2024-03-15T23:30:29.728Z,9.00
2024-03-15T23:34:11.811Z,8.90
2024-03-15T23:37:53.765Z,8.90
2024-03-15T23:41:35.722Z,8.80
2024-03-15T23:45:17.725Z,8.70
2024-03-15T23:48:59.563Z,8.60
2024-03-15T23:52:41.392Z,8.60
2024-03-15T23:56:23.250Z,8.50
